Huvudsida
METAR-TAF:

METAR-TAF

Flygplatser :

Hafar Al-Batin, Saudiarabien

latitud: 27-54N, longitud: 045-32E, höjd: 413 m

METAR: saknas

Tid: 00:13 (21:13 UTC)

Väderprognos

Denna rapport gjordes för 16 timmar och 13 minuter sedan, klockan 05:00 UTC
Prognos gäller från 21 kl. 06 UTC till 21 kl. 20 UTC
Vind 15 kt från ost/nordost
Sikt: 7000 m
Få moln på en höjd av 4000 ft
Spridda moln på en höjd av 8000 ft
Sannolikhet 30% :
Temporärt
från 21 kl. 10 UTC till 21 kl. 16 UTC
Sikt: 3500 m
Få moln på en höjd av 3500 ft, Cumulonimbus.
Spridda moln på en höjd av 4000 ft
högt damm drev

TAF: OEKK 210500Z 2106/2120 06015KT 7000 FEW040 SCT080 PROB30 TEMPO 2110/2116 3500 BLDU FEW035CB SCT040

Aktuella väderrapporter och prognoser från 4000 flygplatser (METAR- och TAF-rapporter).

De tillgängliga stationerna syns som gula och röda prickar på kartan.

För musen över prickarna för att se namnen på stationerna.

Klicka sedan för att få väderrapporter och prognoser.

För att ändra kartan: Klicka på de gröna knapparna med ett svart kors på för att zooma in; den gröna knappen med ett streck på för att zooma ut; eller på de gröna pilarna för angränsande kartor.


METAR-TAF: